createdAt,value
2017-03-11T00:00:53.332Z,23.13
2017-03-11T00:01:52.970Z,23.13
2017-03-11T00:02:53.378Z,23.32
2017-03-11T00:03:53.328Z,23.22
2017-03-11T00:04:53.389Z,23.22
2017-03-11T00:05:53.347Z,23.13
2017-03-11T00:06:53.342Z,22.93
2017-03-11T00:07:53.393Z,23.22
2017-03-11T00:08:53.353Z,23.03
2017-03-11T00:09:53.406Z,23.13
2017-03-11T00:10:53.412Z,23.61
2017-03-11T00:11:53.384Z,23.03
2017-03-11T00:12:53.416Z,23.22
2017-03-11T00:13:53.579Z,23.22
2017-03-11T00:14:53.034Z,23.41
2017-03-11T00:15:53.436Z,23.13
2017-03-11T00:16:53.482Z,23.13
2017-03-11T00:17:53.099Z,23.03
2017-03-11T00:18:54.901Z,23.22
2017-03-11T00:19:53.462Z,23.13
2017-03-11T00:20:53.409Z,22.93
2017-03-11T00:21:53.623Z,23.03
2017-03-11T00:22:53.517Z,23.03
2017-03-11T00:23:53.770Z,23.13
2017-03-11T00:24:53.478Z,23.13
2017-03-11T00:25:53.483Z,22.93
2017-03-11T00:26:53.041Z,23.61
2017-03-11T00:27:53.443Z,23.03
2017-03-11T00:28:53.496Z,23.13
2017-03-11T00:29:53.457Z,23.22
2017-03-11T00:30:53.519Z,23.13
2017-03-11T00:31:53.071Z,23.13
2017-03-11T00:32:53.126Z,23.22
2017-03-11T00:33:53.521Z,22.93
2017-03-11T00:34:53.526Z,23.03
2017-03-11T00:35:53.534Z,23.13
2017-03-11T00:36:53.485Z,23.22
2017-03-11T00:37:53.139Z,23.22
2017-03-11T00:38:53.565Z,23.22
2017-03-11T00:39:53.520Z,23.22
2017-03-11T00:40:53.508Z,23.22
2017-03-11T00:41:53.559Z,22.93
2017-03-11T00:42:53.644Z,23.32
2017-03-11T00:43:53.531Z,23.13
2017-03-11T00:44:53.231Z,23.22
2017-03-11T00:45:53.531Z,23.03
2017-03-11T00:46:53.188Z,23.32
2017-03-11T00:47:53.548Z,23.03
2017-03-11T00:48:53.642Z,23.03
2017-03-11T00:49:53.600Z,23.03
2017-03-11T00:50:53.554Z,22.93
2017-03-11T00:51:53.562Z,23.13
2017-03-11T00:52:53.624Z,23.13
2017-03-11T00:53:53.618Z,23.41
2017-03-11T00:54:53.626Z,23.22
2017-03-11T00:55:53.578Z,23.13
2017-03-11T00:56:53.584Z,23.03
2017-03-11T00:57:53.590Z,23.22
2017-03-11T00:58:53.592Z,23.03
2017-03-11T00:59:53.648Z,23.13
2017-03-11T01:00:53.645Z,23.13
2017-03-11T01:01:53.607Z,23.32
2017-03-11T01:02:53.278Z,23.32
2017-03-11T01:03:53.614Z,23.41
2017-03-11T01:04:53.618Z,23.32
2017-03-11T01:05:53.737Z,23.32
2017-03-11T01:06:53.644Z,23.03
2017-03-11T01:07:53.630Z,23.22
2017-03-11T01:08:53.690Z,23.13
2017-03-11T01:09:53.689Z,23.21
2017-03-11T01:10:53.298Z,23.31
2017-03-11T01:11:53.646Z,23.22
2017-03-11T01:12:53.714Z,23.21
2017-03-11T01:13:53.754Z,23.13
2017-03-11T01:14:53.710Z,23.03
2017-03-11T01:15:53.268Z,23.22
2017-03-11T01:16:53.808Z,23.13
2017-03-11T01:17:53.276Z,23.13
2017-03-11T01:18:53.730Z,23.61
2017-03-11T01:19:53.689Z,23.13
2017-03-11T01:20:53.796Z,23.79
2017-03-11T01:21:53.687Z,23.31
2017-03-11T01:22:53.694Z,22.93
2017-03-11T01:23:53.748Z,22.93
2017-03-11T01:24:53.797Z,23.13
2017-03-11T01:25:53.712Z,23.22
2017-03-11T01:26:53.314Z,23.13
2017-03-11T01:27:53.711Z,23.22
2017-03-11T01:28:53.716Z,23.03
2017-03-11T01:29:53.725Z,23.22
2017-03-11T01:30:53.772Z,23.03
2017-03-11T01:31:53.736Z,23.13
2017-03-11T01:32:53.830Z,23.22
2017-03-11T01:33:53.740Z,23.22
2017-03-11T01:34:53.839Z,23.03
2017-03-11T01:35:53.798Z,22.93
2017-03-11T01:36:53.802Z,22.84
2017-03-11T01:37:53.759Z,23.51
2017-03-11T01:38:53.814Z,23.22
2017-03-11T01:39:53.864Z,23.32
2017-03-11T01:40:53.779Z,22.93
2017-03-11T01:41:53.820Z,23.41
2017-03-11T01:42:53.776Z,23.22
2017-03-11T01:43:53.882Z,23.22
2017-03-11T01:44:53.439Z,22.93
2017-03-11T01:45:53.818Z,22.93
2017-03-11T01:46:53.813Z,22.93
2017-03-11T01:47:53.846Z,22.84
2017-03-11T01:48:53.800Z,22.83
2017-03-11T01:49:53.855Z,23.31
2017-03-11T01:50:53.416Z,22.84
2017-03-11T01:51:53.866Z,23.03
2017-03-11T01:52:53.877Z,22.84
2017-03-11T01:53:53.482Z,22.83
2017-03-11T01:54:53.830Z,22.93
2017-03-11T01:55:53.489Z,23.03
2017-03-11T01:56:53.495Z,22.83
2017-03-11T01:57:53.847Z,22.84
2017-03-11T01:58:53.504Z,22.84
2017-03-11T01:59:53.904Z,23.02
2017-03-11T02:00:53.879Z,22.83
2017-03-11T02:01:53.916Z,23.03
2017-03-11T02:02:53.871Z,22.93
2017-03-11T02:03:53.871Z,22.92
2017-03-11T02:04:53.527Z,23.03
2017-03-11T02:05:53.882Z,23.02
2017-03-11T02:06:53.531Z,22.84
2017-03-11T02:07:53.891Z,22.92
2017-03-11T02:08:53.901Z,22.83
2017-03-11T02:09:53.951Z,22.83
2017-03-11T02:10:53.954Z,22.92
2017-03-11T02:11:53.956Z,23.02
2017-03-11T02:12:53.913Z,22.92
2017-03-11T02:13:53.967Z,23.02
2017-03-11T02:14:53.920Z,23.02
2017-03-11T02:15:53.531Z,23.02
2017-03-11T02:16:53.588Z,22.83
2017-03-11T02:17:53.956Z,22.53
2017-03-11T02:18:53.993Z,22.53
2017-03-11T02:19:54.010Z,23.02
2017-03-11T02:20:53.955Z,22.83
2017-03-11T02:21:53.953Z,23.11
2017-03-11T02:22:54.014Z,23.02
2017-03-11T02:23:53.969Z,22.53
2017-03-11T02:24:53.974Z,22.92
2017-03-11T02:25:53.582Z,22.92
2017-03-11T02:26:53.990Z,22.83
2017-03-11T02:27:53.980Z,22.63
2017-03-11T02:28:53.984Z,22.53
2017-03-11T02:29:54.040Z,22.63
2017-03-11T02:30:53.999Z,22.83
2017-03-11T02:31:54.039Z,22.63
2017-03-11T02:32:54.103Z,22.83
2017-03-11T02:33:54.007Z,22.83
2017-03-11T02:34:53.670Z,22.34
2017-03-11T02:35:54.018Z,22.53
2017-03-11T02:36:54.075Z,22.83
2017-03-11T02:37:53.732Z,22.53
2017-03-11T02:38:54.085Z,22.73
2017-03-11T02:39:54.134Z,22.92
2017-03-11T02:40:54.139Z,22.83
2017-03-11T02:41:54.043Z,22.05
2017-03-11T02:42:54.101Z,22.53
2017-03-11T02:43:54.056Z,22.92
2017-03-11T02:44:54.067Z,22.53
2017-03-11T02:45:54.061Z,23.02
2017-03-11T02:46:54.069Z,22.53
2017-03-11T02:47:54.127Z,22.73
2017-03-11T02:48:54.175Z,22.63
2017-03-11T02:49:54.093Z,22.53
2017-03-11T02:50:53.707Z,22.63
2017-03-11T02:51:54.146Z,22.83
2017-03-11T02:52:54.194Z,22.53
2017-03-11T02:53:54.097Z,22.44
2017-03-11T02:54:54.154Z,22.83
2017-03-11T02:55:53.711Z,22.53
2017-03-11T02:56:54.108Z,22.44
2017-03-11T02:57:54.022Z,22.05
2017-03-11T02:58:53.724Z,22.15
2017-03-11T02:59:54.225Z,22.44
2017-03-11T03:00:54.145Z,22.25
2017-03-11T03:01:54.167Z,22.05
2017-03-11T03:02:54.138Z,22.53
2017-03-11T03:03:54.145Z,22.44
2017-03-11T03:04:54.194Z,22.44
2017-03-11T03:05:54.152Z,22.25
2017-03-11T03:06:53.810Z,22.53
2017-03-11T03:07:54.161Z,22.83
2017-03-11T03:08:54.226Z,22.92
2017-03-11T03:09:54.222Z,22.63
2017-03-11T03:10:54.225Z,22.05
2017-03-11T03:11:54.280Z,22.83
2017-03-11T03:12:54.186Z,23.02
2017-03-11T03:13:53.891Z,22.53
2017-03-11T03:14:54.193Z,22.83
2017-03-11T03:15:53.850Z,23.02
2017-03-11T03:16:54.211Z,23.02
2017-03-11T03:17:54.253Z,22.83
2017-03-11T03:18:54.212Z,22.63
2017-03-11T03:19:54.213Z,22.83
2017-03-11T03:20:53.880Z,22.53
2017-03-11T03:21:54.278Z,22.73
2017-03-11T03:22:54.235Z,22.92
2017-03-11T03:23:54.239Z,22.83
2017-03-11T03:24:53.906Z,23.02
2017-03-11T03:25:54.290Z,22.63
2017-03-11T03:26:54.244Z,22.92
2017-03-11T03:27:54.298Z,22.91
2017-03-11T03:28:54.291Z,22.73
2017-03-11T03:29:53.916Z,22.53
2017-03-11T03:30:53.934Z,23.02
2017-03-11T03:31:54.270Z,22.92
2017-03-11T03:32:53.877Z,22.92
2017-03-11T03:33:54.276Z,22.53
2017-03-11T03:34:53.935Z,22.92
2017-03-11T03:35:54.352Z,22.52
2017-03-11T03:36:54.293Z,22.81
2017-03-11T03:37:54.303Z,23
2017-03-11T03:38:54.349Z,22.91
2017-03-11T03:39:54.010Z,22.92
2017-03-11T03:40:54.369Z,22.62
2017-03-11T03:41:54.374Z,23.02
2017-03-11T03:42:54.316Z,22.81
2017-03-11T03:43:55.674Z,23.02
2017-03-11T03:44:54.327Z,22.83
2017-03-11T03:45:53.937Z,22.92
2017-03-11T03:46:54.400Z,22.92
2017-03-11T03:47:54.390Z,22.83
2017-03-11T03:48:55.244Z,22.53
2017-03-11T03:49:54.411Z,23.02
2017-03-11T03:50:54.360Z,22.92
2017-03-11T03:51:54.408Z,23.2
2017-03-11T03:52:54.426Z,22.91
2017-03-11T03:53:54.024Z,22.83
2017-03-11T03:54:54.026Z,22.81
2017-03-11T03:55:54.484Z,23.02
2017-03-11T03:56:54.389Z,22.81
2017-03-11T03:57:54.386Z,22.83
2017-03-11T03:58:54.052Z,23.31
2017-03-11T03:59:54.394Z,22.83
2017-03-11T04:00:54.398Z,22.92
2017-03-11T04:01:54.415Z,22.83
2017-03-11T04:02:54.457Z,22.83
2017-03-11T04:03:54.465Z,23.02
2017-03-11T04:04:54.417Z,22.83
2017-03-11T04:05:55.228Z,22.83
2017-03-11T04:06:54.428Z,22.92
2017-03-11T04:07:54.485Z,23.21
2017-03-11T04:08:54.490Z,23.3
2017-03-11T04:09:54.443Z,23
2017-03-11T04:10:54.499Z,22.52
2017-03-11T04:11:54.450Z,23.02
2017-03-11T04:12:54.506Z,22.63
2017-03-11T04:13:54.515Z,22.15
2017-03-11T04:14:54.464Z,22.63
2017-03-11T04:15:54.480Z,22.73
2017-03-11T04:16:54.129Z,22.83
2017-03-11T04:17:54.479Z,22.91
2017-03-11T04:18:54.140Z,22.92
2017-03-11T04:19:54.487Z,22.81
2017-03-11T04:20:54.494Z,22.91
2017-03-11T04:21:55.697Z,23
2017-03-11T04:22:54.560Z,23
2017-03-11T04:23:54.506Z,22.91
2017-03-11T04:24:54.512Z,22.72
2017-03-11T04:25:54.119Z,22.91
2017-03-11T04:26:54.522Z,22.63
2017-03-11T04:27:54.576Z,22.91
2017-03-11T04:28:54.238Z,22.72
2017-03-11T04:29:54.143Z,22.91
2017-03-11T04:30:54.539Z,22.92
2017-03-11T04:31:54.206Z,22.52
2017-03-11T04:32:54.595Z,22.91
2017-03-11T04:33:54.551Z,22.83
2017-03-11T04:34:54.161Z,22.81
2017-03-11T04:35:54.612Z,22.52
2017-03-11T04:36:54.591Z,22.81
2017-03-11T04:37:54.569Z,22.81
2017-03-11T04:38:54.576Z,22.81
2017-03-11T04:39:54.591Z,23
2017-03-11T04:40:54.581Z,22.91
2017-03-11T04:41:54.241Z,22.72
2017-03-11T04:42:54.648Z,22.91
2017-03-11T04:43:54.595Z,22.81
2017-03-11T04:44:54.662Z,22.91
2017-03-11T04:45:54.604Z,22.52
2017-03-11T04:46:54.629Z,22.83
2017-03-11T04:47:54.660Z,22.44
2017-03-11T04:48:54.679Z,22.05
2017-03-11T04:49:54.728Z,22.73
2017-03-11T04:50:54.678Z,22.15
2017-03-11T04:51:54.684Z,22.81
2017-03-11T04:52:54.238Z,22.14
2017-03-11T04:53:54.640Z,22.91
2017-03-11T04:54:54.643Z,22.52
2017-03-11T04:55:54.704Z,22.81
2017-03-11T04:56:54.655Z,22.62
2017-03-11T04:57:54.280Z,22.81
2017-03-11T04:58:54.712Z,22.33
2017-03-11T04:59:54.665Z,22.33
2017-03-11T05:00:54.673Z,21.95
2017-03-11T05:01:54.677Z,22.72
2017-03-11T05:02:54.731Z,22.52
2017-03-11T05:03:54.736Z,22.52
2017-03-11T05:04:54.737Z,22.05
2017-03-11T05:05:54.693Z,22.14
2017-03-11T05:06:54.310Z,22.05
2017-03-11T05:07:54.800Z,22.81
2017-03-11T05:08:54.759Z,22.14
2017-03-11T05:09:54.312Z,22.33
2017-03-11T05:10:54.773Z,22.05
2017-03-11T05:11:54.722Z,22.33
2017-03-11T05:12:54.820Z,22.52
2017-03-11T05:14:09.254Z,22.14
2017-03-11T05:14:54.782Z,22.33
2017-03-11T05:15:54.744Z,22.24
2017-03-11T05:16:54.742Z,22.24
2017-03-11T05:17:54.860Z,22.14
2017-03-11T05:18:54.366Z,22.05
2017-03-11T05:19:54.853Z,21.75
2017-03-11T05:20:54.807Z,21.95
2017-03-11T05:21:54.812Z,22.15
2017-03-11T05:22:54.765Z,21.96
2017-03-11T05:23:54.769Z,22.14
2017-03-11T05:24:54.825Z,22.05
2017-03-11T05:25:54.827Z,22.24
2017-03-11T05:26:54.835Z,21.86
2017-03-11T05:27:54.838Z,22.15
2017-03-11T05:28:54.791Z,21.77
2017-03-11T05:29:54.844Z,21.95
2017-03-11T05:30:54.468Z,21.86
2017-03-11T05:31:54.923Z,21.75
2017-03-11T05:32:54.860Z,21.96
2017-03-11T05:33:54.816Z,21.95
2017-03-11T05:34:54.824Z,21.86
2017-03-11T05:35:54.824Z,21.96
2017-03-11T05:36:54.877Z,21.86
2017-03-11T05:37:54.449Z,21.96
2017-03-11T05:38:54.887Z,21.96
2017-03-11T05:39:54.506Z,21.96
2017-03-11T05:40:54.847Z,21.96
2017-03-11T05:41:54.850Z,22.25
2017-03-11T05:42:54.858Z,21.75
2017-03-11T05:44:09.386Z,21.85
2017-03-11T05:44:54.867Z,21.95
2017-03-11T05:45:54.870Z,21.96
2017-03-11T05:46:54.873Z,21.96
2017-03-11T05:47:54.926Z,21.77
2017-03-11T05:48:54.937Z,21.96
2017-03-11T05:49:54.888Z,21.67
2017-03-11T05:50:54.544Z,22.05
2017-03-11T05:51:54.905Z,22.05
2017-03-11T05:52:54.954Z,22.05
2017-03-11T05:53:54.962Z,21.96
2017-03-11T05:54:54.959Z,21.96
2017-03-11T05:55:54.914Z,21.86
2017-03-11T05:56:54.918Z,22.15
2017-03-11T05:57:54.577Z,21.95
2017-03-11T05:58:54.928Z,22.05
2017-03-11T05:59:55.029Z,21.96
2017-03-11T06:00:54.936Z,21.67
2017-03-11T06:01:54.939Z,21.86
2017-03-11T06:02:55.000Z,21.67
2017-03-11T06:03:54.949Z,22.15
2017-03-11T06:04:54.953Z,21.77
2017-03-11T06:05:54.559Z,21.86
2017-03-11T06:06:54.570Z,21.96
2017-03-11T06:07:55.028Z,21.58
2017-03-11T06:08:55.024Z,22.25
2017-03-11T06:09:55.033Z,21.86
2017-03-11T06:10:54.993Z,21.96
2017-03-11T06:11:54.589Z,21.67
2017-03-11T06:12:54.594Z,21.86
2017-03-11T06:13:55.046Z,21.86
2017-03-11T06:14:54.997Z,21.86
2017-03-11T06:15:55.004Z,21.67
2017-03-11T06:16:55.120Z,21.86
2017-03-11T06:17:55.060Z,21.77
2017-03-11T06:18:55.016Z,21.48
2017-03-11T06:19:55.075Z,21.38
2017-03-11T06:20:55.323Z,21.58
2017-03-11T06:21:54.691Z,21.67
2017-03-11T06:22:55.145Z,21.67
2017-03-11T06:23:55.085Z,21.58
2017-03-11T06:24:54.652Z,21.28
2017-03-11T06:25:55.104Z,21.38
2017-03-11T06:26:55.151Z,21.38
2017-03-11T06:27:55.107Z,21.28
2017-03-11T06:28:54.664Z,21.58
2017-03-11T06:29:55.066Z,21.58
2017-03-11T06:30:55.070Z,21.19
2017-03-11T06:31:55.076Z,21.28
2017-03-11T06:32:55.135Z,21.01
2017-03-11T06:33:55.133Z,20.72
2017-03-11T06:34:54.705Z,20.81
2017-03-11T06:35:55.149Z,21.2
2017-03-11T06:36:55.449Z,20.81
2017-03-11T06:37:55.158Z,20.91
2017-03-11T06:38:55.162Z,21.01
2017-03-11T06:39:54.763Z,21.2
2017-03-11T06:40:55.125Z,20.91
2017-03-11T06:41:54.773Z,20.72
2017-03-11T06:42:55.135Z,20.81
2017-03-11T06:43:55.139Z,20.91
2017-03-11T06:44:55.183Z,20.91
2017-03-11T06:45:54.750Z,20.81
2017-03-11T06:46:55.142Z,21.2
2017-03-11T06:47:55.147Z,20.81
2017-03-11T06:48:55.211Z,20.72
2017-03-11T06:49:55.206Z,20.91
2017-03-11T06:50:55.220Z,20.81
2017-03-11T06:51:55.227Z,20.81
2017-03-11T06:52:55.170Z,20.72
2017-03-11T06:53:56.226Z,20.72
2017-03-11T06:54:55.227Z,20.91
2017-03-11T06:55:55.194Z,20.81
2017-03-11T06:56:55.187Z,20.72
2017-03-11T06:57:55.253Z,20.81
2017-03-11T06:58:55.211Z,20.81
2017-03-11T06:59:54.811Z,20.91
2017-03-11T07:00:55.208Z,20.72
2017-03-11T07:01:55.268Z,21.01
2017-03-11T07:02:55.268Z,21.01
2017-03-11T07:03:55.225Z,20.91
2017-03-11T07:04:55.278Z,20.91
2017-03-11T07:05:55.289Z,20.81
2017-03-11T07:06:55.300Z,20.91
2017-03-11T07:07:55.295Z,20.81
2017-03-11T07:08:54.908Z,20.91
2017-03-11T07:09:55.353Z,20.91
2017-03-11T07:10:55.322Z,20.81
2017-03-11T07:11:55.259Z,20.53
2017-03-11T07:12:55.276Z,20.81
2017-03-11T07:13:55.283Z,20.62
2017-03-11T07:14:55.289Z,20.81
2017-03-11T07:15:55.334Z,20.81
2017-03-11T07:16:55.335Z,20.81
2017-03-11T07:17:55.299Z,20.72
2017-03-11T07:18:55.295Z,20.91
2017-03-11T07:19:55.299Z,21.01
2017-03-11T07:20:55.306Z,20.81
2017-03-11T07:21:55.367Z,21.01
2017-03-11T07:22:55.321Z,20.91
2017-03-11T07:23:55.330Z,21.01
2017-03-11T07:24:55.426Z,21.01
2017-03-11T07:25:55.434Z,20.91
2017-03-11T07:26:55.330Z,20.91
2017-03-11T07:27:55.393Z,20.72
2017-03-11T07:28:55.341Z,20.53
2017-03-11T07:29:55.395Z,20.33
2017-03-11T07:30:55.409Z,20.63
2017-03-11T07:31:55.410Z,20.63
2017-03-11T07:32:55.070Z,20.53
2017-03-11T07:33:55.377Z,19.95
2017-03-11T07:34:55.421Z,20.06
2017-03-11T07:35:55.425Z,19.68
2017-03-11T07:36:55.386Z,19.49
2017-03-11T07:37:55.484Z,19.68
2017-03-11T07:38:55.388Z,19.01
2017-03-11T07:39:55.443Z,18.73
2017-03-11T07:40:55.398Z,18.54
2017-03-11T07:41:55.457Z,18.34
2017-03-11T07:42:55.408Z,18.16
2017-03-11T07:44:10.641Z,17.97
2017-03-11T07:44:55.074Z,17.88
2017-03-11T07:45:55.773Z,17.97
2017-03-11T07:46:55.443Z,17.78
2017-03-11T07:47:55.480Z,16.91
2017-03-11T07:48:55.488Z,16.92
2017-03-11T07:49:55.491Z,17.6
2017-03-11T07:50:55.446Z,17.3
2017-03-11T07:51:55.451Z,16.82
2017-03-11T07:52:55.075Z,17.02
2017-03-11T07:53:55.521Z,17.02
2017-03-11T07:54:55.565Z,17.31
2017-03-11T07:55:55.522Z,16.83
2017-03-11T07:56:55.478Z,16.54
2017-03-11T07:57:55.183Z,16.74
2017-03-11T07:58:55.508Z,16.64
2017-03-11T07:59:55.487Z,16.25
2017-03-11T08:00:55.547Z,16.44
2017-03-11T08:01:55.503Z,16.74
2017-03-11T08:02:55.503Z,16.44
2017-03-11T08:03:55.163Z,16.36
2017-03-11T08:04:55.580Z,15.97
2017-03-11T08:05:55.570Z,16.26
2017-03-11T08:06:55.582Z,15.97
2017-03-11T08:07:55.582Z,16.55
2017-03-11T08:08:55.584Z,16.26
2017-03-11T08:09:55.645Z,15.97
2017-03-11T08:10:55.201Z,15.68
2017-03-11T08:11:55.204Z,15.87
2017-03-11T08:12:55.611Z,15.97
2017-03-11T08:13:55.612Z,15.87
2017-03-11T08:14:55.627Z,15.01
2017-03-11T08:15:55.675Z,13.78
2017-03-11T08:16:55.745Z,11.57
2017-03-11T08:17:55.644Z,11.48
2017-03-11T08:18:55.647Z,11
2017-03-11T08:19:55.606Z,11.19
2017-03-11T08:20:55.963Z,10.61
2017-03-11T08:21:55.219Z,10.72
2017-03-11T08:22:55.676Z,10.33
2017-03-11T08:23:55.683Z,10.33
2017-03-11T08:24:55.692Z,10.14
2017-03-11T08:25:55.653Z,10.52
2017-03-11T08:26:55.713Z,10.52
2017-03-11T08:27:55.725Z,10.23
2017-03-11T08:28:55.721Z,9.75
2017-03-11T08:29:55.700Z,10.33
2017-03-11T08:30:55.691Z,10.05
2017-03-11T08:31:55.799Z,9.66
2017-03-11T08:32:55.761Z,9.95
2017-03-11T08:33:55.719Z,9.85
2017-03-11T08:34:56.025Z,10.34
2017-03-11T08:35:55.753Z,10.34
2017-03-11T08:36:55.797Z,10.24
2017-03-11T08:37:55.819Z,10.42
2017-03-11T08:38:55.448Z,10.52
2017-03-11T08:39:55.823Z,10.52
2017-03-11T08:40:55.780Z,10.24
2017-03-11T08:41:56.146Z,10.03
2017-03-11T08:42:55.806Z,9.66
2017-03-11T08:43:55.465Z,10.05
2017-03-11T08:44:55.880Z,10.05
2017-03-11T08:45:55.836Z,9.17
2017-03-11T08:46:55.892Z,9.66
2017-03-11T08:47:55.856Z,9.95
2017-03-11T08:48:55.870Z,10.24
2017-03-11T08:49:55.867Z,10.43
2017-03-11T08:50:55.545Z,10.71
2017-03-11T08:51:55.888Z,10.52
2017-03-11T08:52:55.898Z,10.41
2017-03-11T08:53:55.959Z,10.71
2017-03-11T08:54:55.525Z,11.58
2017-03-11T08:55:55.928Z,11.29
2017-03-11T08:56:55.938Z,11.19
2017-03-11T08:57:56.008Z,10.22
2017-03-11T08:58:56.059Z,10.52
2017-03-11T08:59:55.964Z,11.1
2017-03-11T09:00:55.977Z,10.42
2017-03-11T09:01:55.599Z,10.43
2017-03-11T09:02:55.995Z,10.14
2017-03-11T09:03:56.052Z,10.43
2017-03-11T09:04:56.061Z,10.33
2017-03-11T09:05:56.087Z,10.24
2017-03-11T09:06:56.087Z,10.52
2017-03-11T09:07:56.098Z,11.1
2017-03-11T09:08:56.054Z,11.58
2017-03-11T09:09:55.669Z,10.61
2017-03-11T09:10:56.075Z,10.71
2017-03-11T09:11:56.134Z,10.52
2017-03-11T09:12:56.101Z,10.52
2017-03-11T09:13:56.180Z,10.03
2017-03-11T09:14:56.171Z,10.52
2017-03-11T09:15:56.175Z,10.24
2017-03-11T09:16:55.753Z,10.34
2017-03-11T09:17:56.633Z,10.53
2017-03-11T09:18:56.232Z,10.42
2017-03-11T09:19:56.267Z,10.33
2017-03-11T09:20:56.228Z,10.52
2017-03-11T09:21:56.192Z,10.91
2017-03-11T09:22:56.198Z,11.39
2017-03-11T09:23:56.212Z,11.19
2017-03-11T09:24:56.217Z,11
2017-03-11T09:25:56.277Z,11.38
2017-03-11T09:26:56.298Z,11.58
2017-03-11T09:27:56.249Z,11.58
2017-03-11T09:28:56.256Z,11.49
2017-03-11T09:29:56.265Z,12.26
2017-03-11T09:30:56.281Z,12.26
2017-03-11T09:31:56.292Z,12.64
2017-03-11T09:32:56.393Z,13.02
2017-03-11T09:33:56.302Z,13.69
2017-03-11T09:34:55.988Z,14.37
2017-03-11T09:35:56.425Z,14.84
2017-03-11T09:36:56.391Z,14.74
2017-03-11T09:37:56.415Z,15.7
2017-03-11T09:38:56.436Z,15.79
2017-03-11T09:39:56.503Z,15.99
2017-03-11T09:40:56.021Z,15.89
2017-03-11T09:41:56.418Z,16.56
2017-03-11T09:42:56.374Z,16.75
2017-03-11T09:43:56.449Z,16.85
2017-03-11T09:44:56.436Z,17.14
2017-03-11T09:45:56.657Z,17.24
2017-03-11T09:46:56.020Z,16.85
2017-03-11T09:47:56.461Z,17.61
2017-03-11T09:48:56.541Z,17.03
2017-03-11T09:49:56.477Z,17.99
2017-03-11T09:50:56.483Z,18.19
2017-03-11T09:51:56.489Z,18.08
2017-03-11T09:52:56.112Z,18.27
2017-03-11T09:53:56.457Z,18.38
2017-03-11T09:54:56.460Z,18.18
2017-03-11T09:55:56.531Z,18.85
2017-03-11T09:56:56.479Z,18.47
2017-03-11T09:57:56.483Z,18.95
2017-03-11T09:58:56.493Z,18.18
2017-03-11T09:59:56.545Z,18.66
2017-03-11T10:00:56.158Z,19.15
2017-03-11T10:01:56.557Z,19.15
2017-03-11T10:02:56.569Z,19.34
2017-03-11T10:03:56.228Z,18.95
2017-03-11T10:04:56.531Z,18.37
2017-03-11T10:05:56.548Z,18.75
2017-03-11T10:06:56.559Z,19.91
2017-03-11T10:07:56.602Z,18.75
2017-03-11T10:08:56.213Z,18.65
2017-03-11T10:09:56.621Z,18.36
2017-03-11T10:10:56.671Z,17.97
2017-03-11T10:11:56.580Z,18.65
2017-03-11T10:12:56.594Z,18.85
2017-03-11T10:13:56.658Z,18.55
2017-03-11T10:14:56.597Z,18.07
2017-03-11T10:15:56.623Z,18.66
2017-03-11T10:16:56.283Z,18.47
2017-03-11T10:17:56.668Z,17.89
2017-03-11T10:18:56.683Z,18.08
2017-03-11T10:19:56.632Z,18.08
2017-03-11T10:20:56.639Z,17.89
2017-03-11T10:21:56.644Z,17.79
2017-03-11T10:22:56.750Z,18.18
2017-03-11T10:23:56.665Z,17.89
2017-03-11T10:24:56.714Z,17.89
2017-03-11T10:25:56.730Z,17.79
2017-03-11T10:26:56.279Z,18.08
2017-03-11T10:27:56.747Z,18.08
2017-03-11T10:28:56.790Z,18.08
2017-03-11T10:29:56.357Z,18.18
2017-03-11T10:30:56.755Z,17.7
2017-03-11T10:31:56.312Z,17.7
2017-03-11T10:32:56.763Z,17.6
2017-03-11T10:33:56.772Z,17.9
2017-03-11T10:34:56.778Z,18.09
2017-03-11T10:35:56.436Z,17.98
2017-03-11T10:36:56.739Z,17.5
2017-03-11T10:37:56.795Z,17.51
2017-03-11T10:38:56.801Z,17.12
2017-03-11T10:39:56.811Z,17.9
2017-03-11T10:40:56.834Z,18.08
2017-03-11T10:41:56.780Z,17.7
2017-03-11T10:42:56.777Z,17.6
2017-03-11T10:44:11.260Z,17.4
2017-03-11T10:44:56.795Z,17.4
2017-03-11T10:45:56.796Z,17.21
2017-03-11T10:46:56.899Z,17.31
2017-03-11T10:47:56.856Z,17.21
2017-03-11T10:48:56.885Z,17.6
2017-03-11T10:49:56.923Z,17.02
2017-03-11T10:50:56.875Z,17.31
2017-03-11T10:51:56.882Z,16.92
2017-03-11T10:52:56.926Z,17.21
2017-03-11T10:53:56.847Z,17.4
2017-03-11T10:54:56.900Z,16.53
2017-03-11T10:55:56.912Z,16.63
2017-03-11T10:56:56.520Z,16.63
2017-03-11T10:57:56.867Z,16.72
2017-03-11T10:58:56.876Z,16.53
2017-03-11T10:59:56.886Z,16.53
2017-03-11T11:00:56.887Z,16.53
2017-03-11T11:01:56.900Z,17.21
2017-03-11T11:02:56.951Z,16.53
2017-03-11T11:03:56.919Z,16.63
2017-03-11T11:04:56.913Z,16.72
2017-03-11T11:05:57.018Z,16.72
2017-03-11T11:06:56.925Z,16.82
2017-03-11T11:07:57.234Z,16.72
2017-03-11T11:08:56.991Z,16.63
2017-03-11T11:09:56.545Z,15.86
2017-03-11T11:10:56.958Z,16.53
2017-03-11T11:11:56.961Z,16.34
2017-03-11T11:12:57.011Z,16.05
2017-03-11T11:14:57.024Z,16.63
2017-03-11T11:15:57.028Z,15.95
2017-03-11T11:16:56.655Z,16.34
2017-03-11T11:17:56.992Z,16.34
2017-03-11T11:18:57.054Z,16.24
2017-03-11T11:19:57.001Z,16.53
2017-03-11T11:20:57.022Z,16.53
2017-03-11T11:21:56.622Z,16.63
2017-03-11T11:22:57.026Z,17.31
2017-03-11T11:23:57.076Z,16.53
2017-03-11T11:24:57.083Z,16.34
2017-03-11T11:25:57.123Z,16.82
2017-03-11T11:26:57.100Z,16.82
2017-03-11T11:27:57.057Z,16.63
2017-03-11T11:28:57.105Z,15.86
2017-03-11T11:29:57.061Z,16.33
2017-03-11T11:30:57.080Z,16.52
2017-03-11T11:31:57.076Z,15.66
2017-03-11T11:32:57.129Z,16.52
2017-03-11T11:33:56.688Z,15.85
2017-03-11T11:34:57.124Z,16.14
2017-03-11T11:35:57.199Z,15.75
2017-03-11T11:36:57.206Z,15.85
2017-03-11T11:37:57.210Z,15.85
2017-03-11T11:38:56.717Z,15.94
2017-03-11T11:39:57.170Z,16.72
2017-03-11T11:40:57.173Z,16.43
2017-03-11T11:41:57.179Z,16.14
2017-03-11T11:42:57.189Z,15.85
2017-03-11T11:43:57.191Z,15.95
2017-03-11T11:44:57.152Z,16.52
2017-03-11T11:45:56.754Z,16.62
2017-03-11T11:46:57.158Z,15.94
2017-03-11T11:47:57.167Z,16.61
2017-03-11T11:48:57.269Z,16.42
2017-03-11T11:49:57.233Z,16.32
2017-03-11T11:50:57.178Z,16.32
2017-03-11T11:51:57.238Z,16.61
2017-03-11T11:52:57.237Z,16.13
2017-03-11T11:53:57.192Z,16.23
2017-03-11T11:54:57.235Z,15.46
2017-03-11T11:55:57.251Z,16.14
2017-03-11T11:56:57.307Z,15.74
2017-03-11T11:57:57.222Z,15.94
2017-03-11T11:58:57.227Z,16.52
2017-03-11T11:59:57.275Z,15.66
2017-03-11T12:00:57.233Z,15.94
2017-03-11T12:01:57.237Z,16.14
2017-03-11T12:02:57.335Z,15.85
2017-03-11T12:03:57.242Z,15.66
2017-03-11T12:04:57.297Z,15.94
2017-03-11T12:05:57.306Z,15.85
2017-03-11T12:06:57.307Z,15.85
2017-03-11T12:07:57.261Z,15.66
2017-03-11T12:08:57.318Z,15.56
2017-03-11T12:09:57.325Z,15.66
2017-03-11T12:10:57.328Z,16.05
2017-03-11T12:11:57.336Z,16.34
2017-03-11T12:12:57.340Z,15.94
2017-03-11T12:13:59.626Z,15.56
2017-03-11T12:14:57.347Z,16.14
2017-03-11T12:15:57.302Z,16.52
2017-03-11T12:16:56.963Z,15.94
2017-03-11T12:17:57.414Z,16.81
2017-03-11T12:18:57.321Z,16.43
2017-03-11T12:19:56.980Z,16.62
2017-03-11T12:20:57.332Z,16.62
2017-03-11T12:21:56.941Z,16.62
2017-03-11T12:22:57.343Z,16.72
2017-03-11T12:23:57.346Z,16.72
2017-03-11T12:24:57.351Z,17.2
2017-03-11T12:25:57.429Z,17.97
2017-03-11T12:26:57.366Z,17.4
2017-03-11T12:27:57.372Z,17.1
2017-03-11T12:28:57.032Z,17.68
2017-03-11T12:29:57.428Z,17.88
2017-03-11T12:30:57.492Z,18.17
2017-03-11T12:31:57.441Z,17.68
2017-03-11T12:32:57.498Z,18.55
2017-03-11T12:33:57.400Z,18.55
2017-03-11T12:34:57.411Z,18.85
2017-03-11T12:35:57.416Z,18.75
2017-03-11T12:36:57.476Z,17.77
2017-03-11T12:37:57.128Z,18.45
2017-03-11T12:38:57.429Z,18.64
2017-03-11T12:39:57.489Z,18.06
2017-03-11T12:40:57.044Z,18.06
2017-03-11T12:41:57.505Z,17.87
2017-03-11T12:42:57.449Z,17.01
2017-03-11T12:43:57.556Z,17.77
2017-03-11T12:44:57.465Z,18.26
2017-03-11T12:45:57.492Z,18.55
2017-03-11T12:46:57.486Z,18.26
2017-03-11T12:47:57.476Z,17.77
2017-03-11T12:48:57.981Z,17.48
2017-03-11T12:49:57.485Z,17.97
2017-03-11T12:50:57.152Z,18.26
2017-03-11T12:51:57.548Z,17.77
2017-03-11T12:52:57.563Z,17.97
2017-03-11T12:53:57.505Z,17.77
2017-03-11T12:54:57.510Z,17.77
2017-03-11T12:55:57.519Z,18.06